Latest Coastal Weather Observations for Mornington Island Airport

IDQ60701

Issued at 8:22 pm EST Tuesday 27 September 2016 (issued every 10 minutes, with the page automatically refreshed every 10 minutes)

About coastal observations | Map of coastal stations | Coastal observations for QLD | Marine services | Other Formats
Station Details ID: 029182 Name: MORNINGTON ISLAND AIRPORT Lat: -16.66 Lon: 139.17 Height: 9.52 m
Data from the previous 72 hours. | See also: Recent months at Mornington Island Airport
Date/Time
EST
Temp
°C
Wind Pressure Rain since
9am
mm
Weather Cloud Vis
km
Sea
Height
m
Swell
Dir  Spd
kts
Gust
kts
hPa Trend Height
m
Period
s
Dir
27/08:00pm 27.4 ENE 3 4 1010.7 - 0.0 - - - - - - -
27/07:30pm 27.9 E 5 6 1010.5 - 0.0 - - - - - - -
27/07:00pm 28.3 SE 5 7 1010.2 - 0.0 - - - - - - -
27/06:30pm 28.8 SE 5 8 1009.9 - 0.0 - - - - - - -
27/06:00pm 29.6 SE 5 8 1009.4 - 0.0 - - - - - - -
27/05:30pm 30.6 SSE 4 6 1009.1 - 0.0 - - - - - - -
27/05:00pm 30.4 S 6 10 1008.9 - 0.0 - - - - - - -
27/04:30pm 30.4 SSE 6 9 1008.7 - 0.0 - - - - - - -
27/04:00pm 29.5 SSE 8 12 1008.9 - 0.0 - - - - - - -
27/03:30pm 30.4 SSE 8 11 1009.2 - 0.0 - - - - - - -
27/03:00pm 31.8 S 7 10 1009.2 - 0.0 - - - - - - -
27/02:30pm 30.7 SSE 9 14 1009.5 - 0.0 - - - - - - -
27/02:00pm 31.2 SSE 7 10 1009.8 - 0.0 - - - - - - -
27/01:30pm 30.6 SSE 9 14 1010.6 - 0.0 - - - - - - -
27/01:00pm 30.6 SSE 9 12 1011.0 - 0.0 - - - - - - -
27/12:30pm 30.3 SSE 10 15 1011.6 - 0.0 - - - - - - -
27/12:00pm 32.6 S 7 14 1012.0 - 0.0 - - - - - - -
27/11:30am 31.3 SSE 9 13 1012.2 - 0.0 - - - - - - -
27/11:00am 30.1 SSE 11 16 1012.4 - 0.0 - - - - - - -
27/10:55am 29.9 SSE 12 16 1012.4 - 0.0 - - - - - - -
27/10:30am 34.9 NE 8 13 1011.9 - 0.0 - - - - - - -
27/10:00am 33.4 ENE 9 13 1012.1 - 0.0 - - - - - - -
27/09:30am 31.7 ENE 9 14 1012.0 - 0.0 - - - - - - -
27/09:00am 30.6 SE 10 15 1012.3 - 0.0 - - - - - - -
27/08:30am 29.2 SE 9 14 1012.3 - 0.0 - - - - - - -
27/08:00am 28.7 SE 10 14 1012.1 - 0.0 - - - - - - -
27/07:30am 27.9 SE 9 13 1011.6 - 0.0 - - - - - - -
27/07:00am 26.9 SE 9 12 1011.1 - 0.0 - - - - - - -
27/06:30am 25.9 SE 7 11 1010.6 - 0.0 - - - - - - -
27/06:00am 24.6 SE 6 8 1010.3 - 0.0 - - - - - - -
27/05:30am 23.7 SE 5 7 1009.9 - 0.0 - - - - - - -
27/05:00am 23.2 SSE 4 6 1009.7 - 0.0 - - - - - - -
27/04:30am 22.1 SSW 3 5 1009.4 - 0.0 - - - - - - -
27/04:00am 22.2 CALM 0 0 1009.5 - 0.0 - - - - - - -
27/03:30am 22.9 SW 1 5 1009.5 - 0.0 - - - - - - -
27/03:00am 23.1 SW 3 4 1009.7 - 0.0 - - - - - - -
27/02:30am 23.4 CALM 0 0 1010.1 - 0.0 - - - - - - -
27/02:00am 24.1 S 3 4 1010.4 - 0.0 - - - - - - -
27/01:30am 24.4 S 3 4 1010.5 - 0.0 - - - - - - -
27/01:00am 25.0 SSW 4 6 1010.9 - 0.0 - - - - - - -
27/12:30am 25.4 SW 5 12 1011.2 - 0.0 - - - - - - -
27/12:00am 26.2 SW 6 10 1011.2 - 0.0 - - - - - - -
 
Date/Time
EST
Temp
°C
Wind Pressure Rain since
9am
mm
Weather Cloud Vis
km
Sea
Height
m
Swell
Dir  Spd
kts
Gust
kts
hPa Trend Height
m
Period
s
Dir
26/11:30pm 26.8 W 7 9 1011.1 - 0.0 - - - - - - -
26/11:00pm 26.6 NW 6 7 1011.0 - 0.0 - - - - - - -
26/10:30pm 26.9 NW 8 9 1010.9 - 0.0 - - - - - - -
26/10:00pm 26.9 NNW 8 10 1010.9 - 0.0 - - - - - - -
26/09:30pm 27.1 NW 9 11 1010.9 - 0.0 - - - - - - -
26/09:00pm 27.0 NNW 8 10 1010.7 - 0.0 - - - - - - -
26/08:30pm 27.1 NW 8 10 1010.4 - 0.0 - - - - - - -
26/08:00pm 27.3 NW 8 9 1010.4 - 0.0 - - - - - - -
26/07:30pm 27.4 NW 8 9 1010.2 - 0.0 - - - - - - -
26/07:00pm 27.7 NW 8 9 1009.9 - 0.0 - - - - - - -
26/06:30pm 28.2 WNW 8 9 1009.6 - 0.0 - - - - - - -
26/06:00pm 28.7 NW 7 8 1009.2 - 0.0 - - - - - - -
26/05:30pm 29.2 W 6 8 1009.1 - 0.0 - - - - - - -
26/05:00pm 29.9 W 7 9 1008.9 - 0.0 - - - - - - -
26/04:30pm 30.6 WNW 10 12 1008.5 - 0.0 - - - - - - -
26/04:24pm 30.8 NW 9 11 1008.5 - 0.0 - - - - - - -
26/04:00pm 35.9 E 9 13 1008.5 - 0.0 - - - - - - -
26/03:30pm 35.9 ESE 10 15 1008.7 - 0.0 - - - - - - -
26/03:00pm 35.2 E 10 14 1008.8 - 0.0 - - - - - - -
26/02:30pm 34.6 E 10 15 1009.1 - 0.0 - - - - - - -
26/02:00pm 33.0 SE 10 14 1009.6 - 0.0 - - - - - - -
26/01:30pm 32.2 SE 11 14 1010.0 - 0.0 - - - - - - -
26/01:00pm 31.4 SE 12 16 1010.5 - 0.0 - - - - - - -
26/12:30pm 31.2 SE 12 17 1010.9 - 0.0 - - - - - - -
26/12:00pm 30.9 SE 12 16 1011.5 - 0.0 - - - - - - -
26/11:30am 30.3 SE 12 16 1012.0 - 0.0 - - - - - - -
26/11:00am 29.8 SE 12 16 1012.4 - 0.0 - - - - - - -
26/10:30am 29.6 SE 12 17 1012.7 - 0.0 - - - - - - -
26/10:00am 29.1 SE 12 17 1012.9 - 0.0 - - - - - - -
26/09:30am 28.6 SE 13 19 1013.2 - 0.0 - - - - - - -
26/09:00am 28.3 SE 14 20 1012.9 - 0.0 - - - - - - -
26/08:30am 27.9 SE 16 22 1012.7 - 0.0 - - - - - - -
26/08:00am 27.5 SE 11 17 1012.3 - 0.0 - - - - - - -
26/07:30am 27.0 SE 11 17 1012.3 - 0.0 - - - - - - -
26/07:00am 26.5 SE 8 13 1011.8 - 0.0 - - - - - - -
26/06:30am 23.7 S 3 5 1011.4 - 0.0 - - - - - - -
26/06:00am 23.4 S 3 4 1011.0 - 0.0 - - - - - - -
26/05:30am 24.1 S 5 10 1010.6 - 0.0 - - - - - - -
26/05:00am 23.6 S 5 7 1010.0 - 0.0 - - - - - - -
26/04:30am 23.4 SSE 5 7 1009.9 - 0.0 - - - - - - -
26/04:00am 23.6 S 5 7 1009.8 - 0.0 - - - - - - -
26/03:30am 24.0 S 3 6 1009.7 - 0.0 - - - - - - -
26/03:00am 26.2 SW 6 8 1009.5 - 0.0 - - - - - - -
26/02:30am 26.3 WSW 6 9 1009.6 - 0.0 - - - - - - -
26/02:00am 25.9 WSW 5 6 1009.7 - 0.0 - - - - - - -
26/01:30am 23.8 NW 3 3 1009.7 - 0.0 - - - - - - -
26/01:00am 23.8 NW 3 4 1009.9 - 0.0 - - - - - - -
26/12:30am 24.8 NW 5 5 1010.2 - 0.0 - - - - - - -
26/12:00am 24.8 NNW 4 4 1010.4 - 0.0 - - - - - - -
 
Date/Time
EST
Temp
°C
Wind Pressure Rain since
9am
mm
Weather Cloud Vis
km
Sea
Height
m
Swell
Dir  Spd
kts
Gust
kts
hPa Trend Height
m
Period
s
Dir
25/11:30pm 24.5 NNW 4 5 1010.9 - 0.0 - - - - - - -
25/11:00pm 24.7 NNW 3 4 1011.0 - 0.0 - - - - - - -
25/10:30pm 24.8 NNW 5 6 1011.1 - 0.0 - - - - - - -
25/10:00pm 25.0 NNW 7 8 1011.2 - 0.0 - - - - - - -
25/09:30pm 24.8 WNW 5 5 1011.3 - 0.0 - - - - - - -
25/09:00pm 25.2 N 5 6 1011.1 - 0.0 - - - - - - -
25/08:30pm 25.8 N 5 6 1010.9 - 0.0 - - - - - - -
25/08:00pm 26.4 N 5 6 1010.7 - 0.0 - - - - - - -
25/07:30pm 26.7 N 5 6 1010.4 - 0.0 - - - - - - -
25/07:00pm 27.0 N 5 7 1010.0 - 0.0 - - - - - - -
25/06:30pm 27.7 NNW 8 10 1009.7 - 0.0 - - - - - - -
25/06:00pm 28.4 NNW 11 13 1009.4 - 0.0 - - - - - - -
25/05:30pm 31.7 SE 5 7 1009.1 - 0.0 - - - - - - -
25/05:00pm 31.7 SSE 6 9 1008.9 - 0.0 - - - - - - -
25/04:30pm 31.9 SE 7 10 1008.7 - 0.0 - - - - - - -
25/04:00pm 31.8 SSE 8 12 1008.7 - 0.0 - - - - - - -
25/03:30pm 31.6 SSE 8 13 1008.7 - 0.0 - - - - - - -
25/03:00pm 31.4 SSE 9 15 1008.9 - 0.0 - - - - - - -
25/02:30pm 32.0 SSE 10 16 1008.7 - 0.0 - - - - - - -
25/02:00pm 31.7 SSE 11 16 1008.9 - 0.0 - - - - - - -
25/01:30pm 32.2 SSE 10 17 1009.3 - 0.0 - - - - - - -
25/01:00pm 32.5 SSE 8 13 1010.0 - 0.0 - - - - - - -
25/12:30pm 31.5 SE 6 12 1010.5 - 0.0 - - - - - - -
25/12:00pm 30.7 SE 7 11 1011.1 - 0.0 - - - - - - -
25/11:30am 29.5 SSE 7 14 1011.6 - 0.0 - - - - - - -
25/11:00am 28.6 SE 9 15 1012.0 - 0.0 - - - - - - -
25/10:30am 28.5 SE 11 16 1012.4 - 0.0 - - - - - - -
25/10:00am 27.6 SSE 11 19 1012.3 - 0.0 - - - - - - -
25/09:30am 27.2 SSE 10 19 1012.5 - 0.0 - - - - - - -
25/09:00am 27.5 W 5 6 1011.2 - 0.0 - - - - - - -
25/08:30am 26.6 SW 5 6 1011.0 - 0.0 - - - - - - -
25/08:00am 27.1 W 5 7 1010.4 - 0.0 - - - - - - -
25/07:30am 26.5 W 6 8 1009.9 - 0.0 - - - - - - -
25/07:00am 25.9 WNW 7 9 1009.4 - 0.0 - - - - - - -
25/06:30am 25.3 NW 8 9 1008.8 - 0.0 - - - - - - -
25/06:00am 24.4 NNW 5 6 1008.3 - 0.0 - - - - - - -
25/05:30am 24.7 NNW 6 7 1007.9 - 0.0 - - - - - - -
25/05:00am 25.0 NNW 7 9 1007.7 - 0.0 - - - - - - -
25/04:30am 25.0 NNW 7 9 1007.4 - 0.0 - - - - - - -
25/04:00am 24.8 NNW 6 8 1007.4 - 0.0 - - - - - - -
25/03:30am 24.4 N 7 8 1007.3 - 0.0 - - - - - - -
25/03:00am 24.9 NNW 6 8 1007.8 - 0.0 - - - - - - -
25/02:30am 25.4 NNW 8 10 1008.1 - 0.0 - - - - - - -
25/02:00am 25.5 NNW 7 10 1008.4 - 0.0 - - - - - - -
25/01:30am 25.9 WNW 8 10 1008.3 - 0.0 - - - - - - -
25/01:00am 25.1 WNW 6 8 1008.6 - 0.0 - - - - - - -
25/12:30am 23.1 NNW 3 4 1008.9 - 0.0 - - - - - - -
25/12:00am 22.8 NNE 5 7 1009.0 - 0.0 - - - - - - -
 
Date/Time
EST
Temp
°C
Wind Pressure Rain since
9am
mm
Weather Cloud Vis
km
Sea
Height
m
Swell
Dir  Spd
kts
Gust
kts
hPa Trend Height
m
Period
s
Dir
24/11:30pm 22.5 NNE 5 7 1009.4 - 0.0 - - - - - - -
24/11:00pm 22.9 NE 6 7 1009.5 - 0.0 - - - - - - -
24/10:30pm 23.3 ENE 7 7 1009.6 - 0.0 - - - - - - -
24/10:00pm 23.4 ENE 6 7 1009.7 - 0.0 - - - - - - -
24/09:30pm 23.7 NE 6 7 1009.8 - 0.0 - - - - - - -
24/09:00pm 24.2 NE 5 6 1009.7 - 0.0 - - - - - - -
24/08:30pm 24.7 NE 4 5 1009.5 - 0.0 - - - - - - -

Other Formats:

Comma delimited format used in spreadsheet applications
http://www.bom.gov.au/fwo/IDQ60701/IDQ60701.94254.axf

JavaScript Object Notation format (JSON) in row-major order
http://www.bom.gov.au/fwo/IDQ60701/IDQ60701.94254.json